Time;durP1;ratioP1;P1;durP2;ratioP2;P2;SDS_P1;SDS_P2;PMS_P1;PMS_P2;Temp;Humidity;BMP_temperature;BMP_pressure;BME280_temperature;BME280_humidity;BME280_pressure;Samples;Min_cycle;Max_cycle;Signal;HPM_P1;HPM_P2
2021/01/02 00:00:00;;;;;;;40.13;29.60;;;;;;;;;;5096751;28;20026;-77
2021/01/02 00:02:27;;;;;;;105.13;71.95;;;;;;;;;;5096291;28;20043;-77
2021/01/02 00:05:01;;;;;;;83.28;57.80;;;;;;;;;;5095315;28;20032;-77
2021/01/02 00:07:46;;;;;;;74.72;41.47;;;;;;;;;;5095501;28;20035;-75
2021/01/02 00:10:12;;;;;;;;;;;;;;;;;;5095775;28;20627;-76
2021/01/02 00:12:57;;;;;;;44.22;28.15;;;;;;;;;;5095097;28;19939;-77
2021/01/02 00:15:27;;;;;;;42.78;26.23;;;;;;;;;;5095128;28;20035;-78
2021/01/02 00:17:59;;;;;;;28.13;17.45;;;;;;;;;;5095226;28;20035;-77
2021/01/02 00:20:44;;;;;;;38.05;26.05;;;;;;;;;;5094910;28;20459;-74
2021/01/02 00:23:18;;;;;;;51.15;31.13;;;;;;;;;;5094781;28;20121;-75
2021/01/02 00:25:47;;;;;;;46.15;30.38;;;;;;;;;;5095084;28;20036;-76
2021/01/02 00:28:13;;;;;;;67.65;41.85;;;;;;;;;;5094912;28;20047;-76
2021/01/02 00:30:58;;;;;;;28.17;19.35;;;;;;;;;;5094926;28;20046;-77
2021/01/02 00:33:39;;;;;;;31.80;18.77;;;;;;;;;;5094904;28;20479;-76
2021/01/02 00:36:19;;;;;;;28.88;18.27;;;;;;;;;;5094246;28;20032;-75
2021/01/02 00:38:46;;;;;;;20.92;14.18;;;;;;;;;;5091636;28;20028;-77
2021/01/02 00:41:13;;;;;;;24.48;16.05;;;;;;;;;;5094684;28;20107;-75
2021/01/02 00:43:39;;;;;;;32.33;20.30;;;;;;;;;;5094635;28;20375;-76
2021/01/02 00:46:05;;;;;;;30.52;18.48;;;;;;;;;;5094639;28;20028;-76
2021/01/02 00:48:32;;;;;;;32.00;20.38;;;;;;;;;;5094350;28;20031;-75
2021/01/02 00:51:04;;;;;;;36.45;24.15;;;;;;;;;;5094534;28;20487;-76
2021/01/02 00:53:38;;;;;;;43.30;28.48;;;;;;;;;;5094231;28;20031;-75
2021/01/02 00:56:16;;;;;;;58.08;42.83;;;;;;;;;;5094500;28;20028;-77
2021/01/02 00:58:42;;;;;;;64.47;44.20;;;;;;;;;;5094227;28;20063;-76
2021/01/02 01:01:14;;;;;;;61.45;42.30;;;;;;;;;;5094068;28;20028;-77
2021/01/02 01:03:58;;;;;;;63.13;44.58;;;;;;;;;;5094439;28;20052;-76
2021/01/02 01:06:26;;;;;;;43.00;27.52;;;;;;;;;;5094291;28;20024;-76
2021/01/02 01:08:53;;;;;;;32.25;20.73;;;;;;;;;;5093919;28;20035;-77
2021/01/02 01:11:21;;;;;;;22.70;14.77;;;;;;;;;;5094079;28;20391;-77
2021/01/02 01:13:49;;;;;;;20.13;13.30;;;;;;;;;;5093929;28;20062;-76
2021/01/02 01:16:15;;;;;;;24.95;14.38;;;;;;;;;;5094096;28;20027;-76
2021/01/02 01:19:00;;;;;;;14.73;9.75;;;;;;;;;;5093880;28;20032;-77
2021/01/02 01:21:26;;;;;;;;;;;;;;;;;;5094279;28;20467;-76
2021/01/02 01:23:58;;;;;;;12.75;7.20;;;;;;;;;;5093735;28;19908;-76
2021/01/02 01:26:42;;;;;;;12.07;6.68;;;;;;;;;;5093826;28;20024;-77
2021/01/02 01:29:16;;;;;;;10.05;6.70;;;;;;;;;;5093609;28;20421;-76
2021/01/02 01:31:47;;;;;;;11.27;8.25;;;;;;;;;;5093656;28;20787;-78
2021/01/02 01:34:20;;;;;;;12.45;8.02;;;;;;;;;;5093427;28;20039;-78
2021/01/02 01:36:47;;;;;;;17.87;11.93;;;;;;;;;;5093637;28;20024;-75
2021/01/02 01:39:13;;;;;;;20.80;14.23;;;;;;;;;;5093294;28;20509;-76
2021/01/02 01:41:42;;;;;;;23.88;15.80;;;;;;;;;;5093691;28;20028;-78
2021/01/02 01:44:12;;;;;;;22.77;15.05;;;;;;;;;;5093338;28;20494;-75
2021/01/02 01:46:50;;;;;;;21.00;13.25;;;;;;;;;;5092881;28;20055;-76
2021/01/02 01:49:37;;;;;;;22.17;15.18;;;;;;;;;;5093533;28;20458;-77
2021/01/02 01:52:12;;;;;;;20.08;11.02;;;;;;;;;;5079563;28;20056;-78
2021/01/02 01:54:57;;;;;;;18.65;11.05;;;;;;;;;;5093191;28;20024;-75
2021/01/02 01:57:24;;;;;;;19.05;12.88;;;;;;;;;;5092928;28;20052;-77
2021/01/02 01:59:59;;;;;;;21.73;12.80;;;;;;;;;;5093354;28;20032;-75
2021/01/02 02:02:44;;;;;;;18.42;10.45;;;;;;;;;;5093071;28;20063;-76
2021/01/02 02:05:15;;;;;;;20.23;13.10;;;;;;;;;;5093055;28;20032;-75
2021/01/02 02:07:42;;;;;;;23.23;15.18;;;;;;;;;;5092996;28;20028;-75
2021/01/02 02:10:09;;;;;;;31.15;20.75;;;;;;;;;;5092880;28;20074;-77
2021/01/02 02:12:35;;;;;;;28.85;19.38;;;;;;;;;;5093025;28;20032;-77
2021/01/02 02:15:01;;;;;;;34.08;21.55;;;;;;;;;;5092698;28;20426;-77
2021/01/02 02:17:34;;;;;;;36.00;20.67;;;;;;;;;;5092923;28;20021;-76
2021/01/02 02:20:12;;;;;;;33.47;20.48;;;;;;;;;;5092630;28;20575;-76
2021/01/02 02:22:39;;;;;;;28.60;18.50;;;;;;;;;;5092617;28;20445;-76
2021/01/02 02:25:10;;;;;;;26.17;17.33;;;;;;;;;;5092826;28;20039;-75
2021/01/02 02:27:41;;;;;;;25.15;15.18;;;;;;;;;;5092694;28;20024;-77
2021/01/02 02:30:08;;;;;;;22.05;12.93;;;;;;;;;;5092487;28;20036;-77
2021/01/02 02:32:38;;;;;;;15.65;10.30;;;;;;;;;;5092503;28;20059;-76
2021/01/02 02:35:06;;;;;;;20.80;14.38;;;;;;;;;;5092509;28;20447;-75
2021/01/02 02:37:32;;;;;;;14.15;9.13;;;;;;;;;;5092437;28;20035;-77
2021/01/02 02:39:58;;;;;;;12.32;7.65;;;;;;;;;;5092735;28;20028;-74
2021/01/02 02:42:25;;;;;;;11.85;7.43;;;;;;;;;;5092345;28;20024;-76
2021/01/02 02:44:51;;;;;;;11.73;9.35;;;;;;;;;;5092400;28;20169;-77
2021/01/02 02:47:19;;;;;;;16.70;11.82;;;;;;;;;;5092312;28;20024;-77
2021/01/02 02:49:48;;;;;;;21.55;14.60;;;;;;;;;;5092152;28;20031;-77
2021/01/02 02:52:24;;;;;;;40.33;25.48;;;;;;;;;;5092411;28;20107;-75
2021/01/02 02:54:50;;;;;;;23.55;13.88;;;;;;;;;;5092541;28;20020;-74
2021/01/02 02:57:17;;;;;;;25.98;16.02;;;;;;;;;;5091919;28;20051;-78
2021/01/02 02:59:43;;;;;;;13.40;8.30;;;;;;;;;;5091956;28;20540;-77
2021/01/02 03:02:10;;;;;;;12.38;7.10;;;;;;;;;;5092265;28;20028;-77
2021/01/02 03:04:36;;;;;;;12.55;8.70;;;;;;;;;;5092122;28;20051;-77
2021/01/02 03:07:03;;;;;;;13.07;9.35;;;;;;;;;;5092217;28;20486;-76
2021/01/02 03:09:30;;;;;;;13.48;8.15;;;;;;;;;;5091989;28;20021;-78
2021/01/02 03:11:56;;;;;;;9.27;5.78;;;;;;;;;;5092337;28;20479;-76
2021/01/02 03:14:22;;;;;;;9.30;6.10;;;;;;;;;;5091986;28;20020;-75
2021/01/02 03:16:48;;;;;;;14.18;7.90;;;;;;;;;;5092322;28;20024;-77
2021/01/02 03:19:15;;;;;;;18.52;11.95;;;;;;;;;;5092273;28;20368;-77
2021/01/02 03:21:41;;;;;;;22.95;14.40;;;;;;;;;;5091968;28;20024;-75
2021/01/02 03:24:08;;;;;;;31.77;18.15;;;;;;;;;;5092177;28;20043;-77
2021/01/02 03:26:34;;;;;;;19.70;11.05;;;;;;;;;;5091862;28;20059;-76
2021/01/02 03:29:00;;;;;;;11.60;6.53;;;;;;;;;;5092148;28;20422;-75
2021/01/02 03:31:26;;;;;;;10.35;6.43;;;;;;;;;;5091879;28;20036;-74
2021/01/02 03:33:52;;;;;;;10.93;6.50;;;;;;;;;;5092066;28;20027;-74
2021/01/02 03:36:18;;;;;;;13.07;8.52;;;;;;;;;;5091933;28;20031;-77
2021/01/02 03:38:55;;;;;;;13.60;8.55;;;;;;;;;;5091772;28;20028;-76
2021/01/02 03:41:21;;;;;;;8.52;5.30;;;;;;;;;;5091712;28;20109;-75
2021/01/02 03:43:47;;;;;;;12.55;8.15;;;;;;;;;;5092058;28;20020;-76
2021/01/02 03:46:13;;;;;;;15.60;9.68;;;;;;;;;;5091872;28;20487;-77
2021/01/02 03:48:39;;;;;;;19.08;12.15;;;;;;;;;;5091708;28;20035;-77
2021/01/02 03:51:06;;;;;;;21.00;13.10;;;;;;;;;;5092090;28;20031;-75
2021/01/02 03:53:32;;;;;;;19.85;12.38;;;;;;;;;;5091601;28;20031;-76
2021/01/02 03:55:58;;;;;;;16.13;10.73;;;;;;;;;;5091941;28;20032;-74
2021/01/02 03:58:24;;;;;;;18.30;10.35;;;;;;;;;;5091446;28;20433;-76
2021/01/02 04:00:50;;;;;;;12.95;8.88;;;;;;;;;;5091715;28;20032;-78
2021/01/02 04:03:16;;;;;;;9.98;6.97;;;;;;;;;;5091882;28;20087;-75
2021/01/02 04:05:49;;;;;;;11.57;7.13;;;;;;;;;;5091577;28;20021;-77
2021/01/02 04:08:15;;;;;;;10.02;6.47;;;;;;;;;;5091616;28;20027;-77
2021/01/02 04:10:41;;;;;;;9.75;6.85;;;;;;;;;;5092788;28;20111;-77
2021/01/02 04:13:07;;;;;;;12.98;11.45;;;;;;;;;;5095436;28;20470;-77
2021/01/02 04:15:34;;;;;;;14.70;12.75;;;;;;;;;;5095083;28;20028;-75
2021/01/02 04:18:00;;;;;;;10.88;7.93;;;;;;;;;;5095324;28;20020;-76
2021/01/02 04:20:27;;;;;;;11.48;6.80;;;;;;;;;;5095118;28;20020;-76
2021/01/02 04:22:53;;;;;;;9.32;5.95;;;;;;;;;;5094853;28;20040;-79
2021/01/02 04:25:19;;;;;;;9.25;7.05;;;;;;;;;;5095136;28;20028;-78
2021/01/02 04:27:45;;;;;;;12.20;7.10;;;;;;;;;;5095029;28;20024;-75
2021/01/02 04:30:11;;;;;;;9.88;6.22;;;;;;;;;;5094962;28;20043;-78
2021/01/02 04:32:38;;;;;;;10.40;6.38;;;;;;;;;;5094737;28;20387;-74
2021/01/02 04:35:04;;;;;;;12.15;8.20;;;;;;;;;;5094863;28;20066;-76
2021/01/02 04:37:30;;;;;;;14.13;9.65;;;;;;;;;;5094922;28;20113;-78
2021/01/02 04:39:56;;;;;;;43.08;29.08;;;;;;;;;;5094730;28;20025;-76
2021/01/02 04:42:23;;;;;;;22.02;12.35;;;;;;;;;;5094678;28;20024;-76
2021/01/02 04:44:53;;;;;;;28.23;14.82;;;;;;;;;;5094574;28;20024;-78
2021/01/02 04:47:19;;;;;;;27.27;13.05;;;;;;;;;;5094803;28;20024;-76
2021/01/02 04:49:49;;;;;;;17.15;9.55;;;;;;;;;;5094336;28;20032;-76
2021/01/02 04:52:18;;;;;;;18.75;11.30;;;;;;;;;;5094472;28;20028;-76
2021/01/02 04:54:50;;;;;;;6.93;4.63;;;;;;;;;;5094335;28;20024;-77
2021/01/02 04:57:17;;;;;;;5.63;4.28;;;;;;;;;;5094355;28;20055;-78
2021/01/02 04:59:49;;;;;;;7.85;4.75;;;;;;;;;;5094183;28;20024;-78
2021/01/02 05:02:18;;;;;;;5.43;3.97;;;;;;;;;;5094442;28;20020;-76
2021/01/02 05:04:48;;;;;;;6.60;4.03;;;;;;;;;;5094089;28;20028;-77
2021/01/02 05:07:27;;;;;;;6.55;4.38;;;;;;;;;;5094455;28;20024;-78
2021/01/02 05:09:53;;;;;;;5.20;3.78;;;;;;;;;;5094260;28;20024;-76
2021/01/02 05:12:23;;;;;;;8.95;5.50;;;;;;;;;;5093963;28;20154;-78
2021/01/02 05:15:08;;;;;;;11.93;6.82;;;;;;;;;;5094259;28;20035;-77
2021/01/02 05:17:35;;;;;;;11.63;7.47;;;;;;;;;;5094053;28;20024;-76
2021/01/02 05:20:20;;;;;;;7.95;5.28;;;;;;;;;;5093846;28;20027;-78
2021/01/02 05:22:46;;;;;;;11.07;7.25;;;;;;;;;;5093928;28;20028;-78
2021/01/02 05:25:12;;;;;;;10.52;6.53;;;;;;;;;;5092692;28;20044;-77
2021/01/02 05:27:39;;;;;;;9.45;6.50;;;;;;;;;;5093940;28;20375;-76
2021/01/02 05:30:12;;;;;;;10.60;7.10;;;;;;;;;;5093677;28;20387;-78
2021/01/02 05:32:56;;;;;;;12.23;7.15;;;;;;;;;;5093790;28;20398;-77
2021/01/02 05:35:23;;;;;;;11.98;7.32;;;;;;;;;;5093695;28;20049;-77
2021/01/02 05:37:50;;;;;;;11.95;7.88;;;;;;;;;;5093822;28;20024;-75
2021/01/02 05:40:34;;;;;;;16.00;10.70;;;;;;;;;;5093551;28;20486;-78
2021/01/02 05:43:01;;;;;;;17.45;11.60;;;;;;;;;;5093715;28;20028;-75
2021/01/02 05:45:28;;;;;;;23.45;17.73;;;;;;;;;;5093232;28;20020;-77
2021/01/02 05:48:13;;;;;;;15.50;11.13;;;;;;;;;;5093525;28;20081;-76
2021/01/02 05:50:43;;;;;;;16.65;10.60;;;;;;;;;;5093427;28;20035;-75
2021/01/02 05:53:27;;;;;;;15.00;9.20;;;;;;;;;;5093225;28;20028;-75
2021/01/02 05:55:57;;;;;;;16.58;11.18;;;;;;;;;;5093192;28;20103;-78
2021/01/02 05:58:23;;;;;;;11.15;8.38;;;;;;;;;;5093130;28;20044;-76
2021/01/02 06:00:50;;;;;;;11.57;7.95;;;;;;;;;;5092926;28;20087;-78
2021/01/02 06:03:23;;;;;;;8.95;5.55;;;;;;;;;;5093351;28;20198;-78
2021/01/02 06:05:58;;;;;;;10.93;6.78;;;;;;;;;;5093138;28;20028;-77
2021/01/02 06:08:43;;;;;;;11.35;7.82;;;;;;;;;;5093014;28;20021;-75
2021/01/02 06:11:28;;;;;;;54.33;37.03;;;;;;;;;;5092981;28;20028;-79
2021/01/02 06:13:55;;;;;;;36.65;24.13;;;;;;;;;;5093136;28;20035;-79
2021/01/02 06:16:21;;;;;;;38.53;23.30;;;;;;;;;;5092812;28;20391;-75
2021/01/02 06:18:48;;;;;;;21.52;16.30;;;;;;;;;;5093024;28;20030;-78
2021/01/02 06:21:16;;;;;;;28.77;20.02;;;;;;;;;;5092695;28;20367;-75
2021/01/02 06:23:44;;;;;;;54.83;39.00;;;;;;;;;;5092872;28;20028;-75
2021/01/02 06:26:11;;;;;;;61.13;41.13;;;;;;;;;;5092514;28;20442;-77
2021/01/02 06:28:39;;;;;;;65.30;41.55;;;;;;;;;;5092675;28;20020;-77
2021/01/02 06:31:09;;;;;;;63.35;45.47;;;;;;;;;;5092426;28;20462;-76
2021/01/02 06:33:35;;;;;;;51.78;35.58;;;;;;;;;;5091869;28;20024;-76
2021/01/02 06:36:01;;;;;;;36.28;24.13;;;;;;;;;;5092147;28;20023;-79
2021/01/02 06:38:28;;;;;;;33.70;21.88;;;;;;;;;;5092346;28;20023;-78
2021/01/02 06:40:55;;;;;;;28.75;18.20;;;;;;;;;;5092426;28;20020;-77
2021/01/02 06:43:22;;;;;;;32.75;21.80;;;;;;;;;;5092484;28;20028;-76
2021/01/02 06:45:58;;;;;;;36.20;23.35;;;;;;;;;;5092437;28;20098;-76
2021/01/02 06:48:24;;;;;;;39.78;25.33;;;;;;;;;;5092363;28;20081;-76
2021/01/02 06:51:09;;;;;;;44.58;24.60;;;;;;;;;;5092226;28;20089;-77
2021/01/02 06:53:36;;;;;;;40.20;26.02;;;;;;;;;;5092279;28;20066;-78
2021/01/02 06:56:16;;;;;;;52.60;33.58;;;;;;;;;;5092409;28;20104;-76
2021/01/02 06:58:46;;;;;;;91.93;60.53;;;;;;;;;;5091680;28;20052;-76
2021/01/02 07:01:18;;;;;;;92.93;56.85;;;;;;;;;;5092314;28;20020;-74
2021/01/02 07:03:48;;;;;;;58.42;39.85;;;;;;;;;;5092140;28;20031;-76
2021/01/02 07:08:47;;;;;;;29.17;18.75;;;;;;;;;;5092183;28;20376;-77
2021/01/02 07:11:36;;;;;;;23.92;16.75;;;;;;;;;;5091908;28;20028;-75
2021/01/02 07:14:08;;;;;;;27.83;19.33;;;;;;;;;;5091717;28;20467;-76
2021/01/02 07:16:49;;;;;;;48.42;27.92;;;;;;;;;;5092023;28;20028;-75
2021/01/02 07:19:29;;;;;;;43.17;25.42;;;;;;;;;;5092051;28;20055;-75
2021/01/02 07:22:04;;;;;;;35.50;20.55;;;;;;;;;;5091888;28;20039;-78
2021/01/02 07:24:31;;;;;;;36.05;23.20;;;;;;;;;;5091604;28;20047;-75
2021/01/02 07:26:59;;;;;;;46.47;34.83;;;;;;;;;;5092055;28;20042;-77
2021/01/02 07:29:25;;;;;;;62.22;44.47;;;;;;;;;;5091742;28;20052;-76
2021/01/02 07:31:52;;;;;;;93.47;68.80;;;;;;;;;;5091666;28;20040;-76
2021/01/02 07:34:18;;;;;;;103.47;76.53;;;;;;;;;;5091903;28;20027;-76
2021/01/02 07:36:45;;;;;;;107.25;79.55;;;;;;;;;;5091612;28;20028;-76
2021/01/02 07:39:11;;;;;;;125.90;88.20;;;;;;;;;;5092231;28;20394;-75
2021/01/02 07:41:37;;;;;;;168.73;99.90;;;;;;;;;;5091621;28;20133;-76
2021/01/02 07:44:04;;;;;;;136.88;89.07;;;;;;;;;;5091996;28;20035;-77
2021/01/02 07:46:34;;;;;;;114.43;73.50;;;;;;;;;;5094447;28;20059;-76
2021/01/02 07:49:00;;;;;;;81.13;57.13;;;;;;;;;;5095957;28;20027;-74
2021/01/02 07:51:27;;;;;;;52.80;38.20;;;;;;;;;;5095517;28;20035;-77
2021/01/02 07:53:54;;;;;;;56.30;40.47;;;;;;;;;;5095479;28;20375;-76
2021/01/02 07:56:39;;;;;;;51.30;38.35;;;;;;;;;;5094334;28;20028;-76
2021/01/02 07:59:24;;;;;;;50.33;37.22;;;;;;;;;;5094427;28;20082;-75
2021/01/02 08:01:51;;;;;;;55.95;41.80;;;;;;;;;;5095316;28;20547;-75
2021/01/02 08:04:18;;;;;;;41.55;32.28;;;;;;;;;;5095332;28;20047;-76
2021/01/02 08:06:48;;;;;;;42.03;31.27;;;;;;;;;;5095276;28;20032;-76
2021/01/02 08:09:14;;;;;;;56.47;40.85;;;;;;;;;;5095281;28;20028;-75
2021/01/02 08:11:48;;;;;;;46.63;35.63;;;;;;;;;;5094759;28;20082;-75
2021/01/02 08:14:14;;;;;;;27.75;21.80;;;;;;;;;;5095439;28;20482;-76
2021/01/02 08:16:40;;;;;;;32.42;24.52;;;;;;;;;;5095067;28;20064;-76
2021/01/02 08:19:06;;;;;;;32.58;24.05;;;;;;;;;;5094932;28;20480;-75
2021/01/02 08:21:39;;;;;;;42.00;30.98;;;;;;;;;;5095066;28;20058;-75
2021/01/02 08:24:12;;;;;;;45.17;33.92;;;;;;;;;;5094675;28;20036;-77
2021/01/02 08:26:39;;;;;;;30.65;22.85;;;;;;;;;;5095082;28;20024;-74
2021/01/02 08:29:05;;;;;;;32.38;24.67;;;;;;;;;;5093414;28;20028;-75
2021/01/02 08:31:33;;;;;;;41.38;29.30;;;;;;;;;;5094726;28;20089;-75
2021/01/02 08:34:00;;;;;;;48.33;35.25;;;;;;;;;;5094539;28;20437;-75
2021/01/02 08:36:26;;;;;;;39.60;31.05;;;;;;;;;;5094896;28;20032;-75
2021/01/02 08:38:59;;;;;;;25.85;21.83;;;;;;;;;;5094507;28;20028;-76
2021/01/02 08:41:30;;;;;;;27.95;21.33;;;;;;;;;;5094663;28;20024;-76
2021/01/02 08:43:56;;;;;;;23.25;18.85;;;;;;;;;;5094428;28;20031;-76
2021/01/02 08:46:25;;;;;;;31.50;24.75;;;;;;;;;;5094626;28;20024;-76
2021/01/02 08:48:52;;;;;;;57.17;45.45;;;;;;;;;;5094162;28;20032;-76
2021/01/02 08:51:25;;;;;;;35.78;30.58;;;;;;;;;;5094463;28;20032;-75
2021/01/02 08:53:51;;;;;;;55.90;42.75;;;;;;;;;;5094134;28;20035;-76
2021/01/02 08:56:20;;;;;;;61.45;48.20;;;;;;;;;;5094090;28;20019;-75
2021/01/02 08:58:46;;;;;;;54.67;39.42;;;;;;;;;;5093993;28;20083;-77
2021/01/02 09:01:12;;;;;;;46.42;34.67;;;;;;;;;;5094322;28;20024;-75
2021/01/02 09:03:38;;;;;;;36.33;28.08;;;;;;;;;;5094113;28;20035;-77
2021/01/02 09:06:26;;;;;;;59.92;43.67;;;;;;;;;;5094064;28;20111;-76
2021/01/02 09:09:03;;;;;;;90.68;68.03;;;;;;;;;;5094437;28;20028;-77
2021/01/02 09:11:29;;;;;;;52.88;40.03;;;;;;;;;;5093981;28;20549;-76
2021/01/02 09:14:15;;;;;;;69.85;47.63;;;;;;;;;;5094224;28;20032;-78
2021/01/02 09:16:42;;;;;;;55.90;37.10;;;;;;;;;;5090122;28;20031;-77
2021/01/02 09:19:23;;;;;;;49.03;35.58;;;;;;;;;;5093698;28;20057;-76
2021/01/02 09:21:49;;;;;;;35.22;25.92;;;;;;;;;;5094002;28;20044;-75
2021/01/02 09:24:22;;;;;;;35.20;27.35;;;;;;;;;;5093640;28;20032;-76
2021/01/02 09:26:49;;;;;;;35.25;27.80;;;;;;;;;;5094104;28;20111;-77
2021/01/02 09:29:19;;;;;;;29.08;22.20;;;;;;;;;;5093746;28;20419;-77
2021/01/02 09:31:45;;;;;;;32.25;24.85;;;;;;;;;;5093284;28;20123;-76
2021/01/02 09:34:12;;;;;;;41.55;32.70;;;;;;;;;;5093706;28;20024;-78
2021/01/02 09:36:39;;;;;;;50.47;36.03;;;;;;;;;;5093621;28;20062;-77
2021/01/02 09:39:05;;;;;;;45.00;33.45;;;;;;;;;;5093435;28;20028;-78
2021/01/02 09:41:32;;;;;;;29.15;19.75;;;;;;;;;;5093708;28;20036;-77
2021/01/02 09:43:58;;;;;;;34.47;26.05;;;;;;;;;;5093635;28;20034;-77
2021/01/02 09:46:25;;;;;;;26.13;20.33;;;;;;;;;;5092964;28;20035;-77
2021/01/02 09:48:53;;;;;;;29.17;21.55;;;;;;;;;;5093459;28;20360;-76
2021/01/02 09:51:22;;;;;;;23.63;15.98;;;;;;;;;;5093326;28;20393;-77
2021/01/02 09:53:48;;;;;;;19.55;16.30;;;;;;;;;;5093158;28;20032;-76
2021/01/02 09:56:15;;;;;;;24.30;18.50;;;;;;;;;;5093391;28;20471;-77
2021/01/02 09:58:42;;;;;;;19.40;16.35;;;;;;;;;;5093051;28;20052;-76
2021/01/02 10:01:08;;;;;;;9.55;6.57;;;;;;;;;;5093033;28;20455;-76
2021/01/02 10:03:34;;;;;;;8.55;5.88;;;;;;;;;;5093112;28;20028;-78
2021/01/02 10:06:00;;;;;;;9.30;5.75;;;;;;;;;;5093410;28;20061;-77
2021/01/02 10:08:37;;;;;;;7.65;6.05;;;;;;;;;;5091583;28;20103;-79
2021/01/02 10:11:25;;;;;;;7.82;5.10;;;;;;;;;;5091635;28;20139;-78
2021/01/02 10:13:57;;;;;;;8.13;5.60;;;;;;;;;;5093034;28;20054;-78
2021/01/02 10:16:23;;;;;;;8.50;5.28;;;;;;;;;;5092381;28;20032;-75
2021/01/02 10:18:49;;;;;;;6.03;4.28;;;;;;;;;;5092758;28;20031;-77
2021/01/02 10:21:15;;;;;;;6.88;4.65;;;;;;;;;;5092952;28;20110;-77
2021/01/02 10:23:41;;;;;;;7.00;5.43;;;;;;;;;;5092427;28;20059;-77
2021/01/02 10:26:07;;;;;;;11.75;7.88;;;;;;;;;;5093069;28;20028;-78
2021/01/02 10:28:33;;;;;;;9.52;5.88;;;;;;;;;;5092390;28;20035;-77
2021/01/02 10:31:00;;;;;;;10.38;5.88;;;;;;;;;;5092330;28;20040;-78
2021/01/02 10:33:26;;;;;;;9.60;5.03;;;;;;;;;;5091359;28;20433;-78
2021/01/02 10:35:52;;;;;;;12.55;8.32;;;;;;;;;;5092700;28;20028;-77
2021/01/02 10:38:18;;;;;;;15.27;10.48;;;;;;;;;;5092236;28;20024;-77
2021/01/02 10:40:44;;;;;;;10.40;7.35;;;;;;;;;;5092373;28;20028;-76
2021/01/02 10:43:10;;;;;;;10.15;7.88;;;;;;;;;;5089277;28;20024;-77
2021/01/02 10:45:36;;;;;;;15.90;11.48;;;;;;;;;;5080368;28;20020;-78
2021/01/02 10:48:02;;;;;;;14.05;9.43;;;;;;;;;;5072406;28;20086;-76
2021/01/02 10:50:28;;;;;;;13.43;8.52;;;;;;;;;;5072654;28;20052;-76
2021/01/02 10:52:54;;;;;;;10.57;6.80;;;;;;;;;;5082099;28;20033;-77
2021/01/02 10:55:20;;;;;;;9.15;6.72;;;;;;;;;;5072337;28;20480;-76
2021/01/02 10:57:46;;;;;;;22.45;17.23;;;;;;;;;;5071814;28;20127;-76
2021/01/02 11:00:13;;;;;;;21.70;14.40;;;;;;;;;;5072146;28;20086;-77
2021/01/02 11:02:39;;;;;;;18.27;12.18;;;;;;;;;;5071965;28;20021;-76
2021/01/02 11:05:05;;;;;;;22.35;15.25;;;;;;;;;;5071706;28;20052;-77
2021/01/02 11:07:31;;;;;;;31.98;19.85;;;;;;;;;;5071922;28;20020;-77
2021/01/02 11:09:57;;;;;;;21.83;15.15;;;;;;;;;;5071994;28;20052;-78
2021/01/02 11:12:26;;;;;;;12.32;7.75;;;;;;;;;;5071778;28;20089;-76
2021/01/02 11:14:52;;;;;;;11.43;6.38;;;;;;;;;;5072036;28;20120;-76
2021/01/02 11:17:19;;;;;;;6.53;4.32;;;;;;;;;;5071825;28;20052;-77
2021/01/02 11:19:45;;;;;;;5.57;3.85;;;;;;;;;;5073658;28;20024;-77
2021/01/02 11:22:12;;;;;;;6.07;4.10;;;;;;;;;;5075965;28;20028;-76
2021/01/02 11:24:42;;;;;;;7.95;4.47;;;;;;;;;;5076170;28;20115;-77
2021/01/02 11:27:08;;;;;;;6.53;4.15;;;;;;;;;;5075727;28;20029;-76
2021/01/02 11:29:34;;;;;;;10.23;4.72;;;;;;;;;;5075883;28;20028;-76
2021/01/02 11:32:03;;;;;;;11.25;7.63;;;;;;;;;;5075967;28;20085;-76
2021/01/02 11:34:29;;;;;;;10.90;8.48;;;;;;;;;;5075704;28;20103;-76
2021/01/02 11:36:57;;;;;;;10.60;7.15;;;;;;;;;;5075816;28;20032;-77
2021/01/02 11:39:24;;;;;;;8.52;5.63;;;;;;;;;;5075589;28;20028;-76
2021/01/02 11:41:50;;;;;;;6.85;4.43;;;;;;;;;;5075520;28;20028;-76
2021/01/02 11:44:18;;;;;;;8.50;6.78;;;;;;;;;;5075406;28;20052;-76
2021/01/02 11:46:45;;;;;;;7.15;4.53;;;;;;;;;;5075465;28;20641;-76
2021/01/02 11:49:12;;;;;;;6.07;4.03;;;;;;;;;;5072891;28;20078;-77
2021/01/02 11:51:39;;;;;;;9.73;5.72;;;;;;;;;;5075303;28;20047;-77
2021/01/02 11:54:06;;;;;;;6.03;4.97;;;;;;;;;;5075064;28;20640;-76
2021/01/02 11:56:32;;;;;;;9.93;5.68;;;;;;;;;;5075208;28;20082;-76
2021/01/02 11:59:02;;;;;;;11.82;6.65;;;;;;;;;;5075156;28;20512;-76
2021/01/02 12:01:36;;;;;;;9.48;6.55;;;;;;;;;;5075419;28;20433;-77
2021/01/02 12:04:03;;;;;;;6.65;5.05;;;;;;;;;;5074923;28;20421;-76
2021/01/02 12:06:29;;;;;;;7.78;4.55;;;;;;;;;;5075206;28;20033;-78
2021/01/02 12:08:56;;;;;;;5.22;2.80;;;;;;;;;;5074911;28;20025;-77
2021/01/02 12:11:42;;;;;;;4.82;2.63;;;;;;;;;;5075108;28;20032;-76
2021/01/02 12:14:09;;;;;;;5.97;4.00;;;;;;;;;;5074903;28;20036;-77
2021/01/02 12:16:35;;;;;;;6.43;4.70;;;;;;;;;;5075027;28;20476;-76
2021/01/02 12:19:02;;;;;;;8.50;5.93;;;;;;;;;;5074773;28;20383;-76
2021/01/02 12:21:28;;;;;;;7.82;4.55;;;;;;;;;;5073685;28;20028;-76
2021/01/02 12:23:54;;;;;;;6.45;4.45;;;;;;;;;;5074604;28;20039;-76
2021/01/02 12:26:20;;;;;;;6.43;4.22;;;;;;;;;;5074820;28;20039;-76
2021/01/02 12:28:47;;;;;;;5.88;4.20;;;;;;;;;;5074777;28;20034;-76
2021/01/02 12:31:33;;;;;;;5.13;3.35;;;;;;;;;;5073919;28;20064;-75
2021/01/02 12:34:00;;;;;;;6.53;3.25;;;;;;;;;;5074484;28;20059;-76
2021/01/02 12:36:44;;;;;;;7.28;4.55;;;;;;;;;;5074708;28;20036;-76
2021/01/02 12:39:12;;;;;;;10.32;5.50;;;;;;;;;;5074640;28;20086;-77
2021/01/02 12:41:38;;;;;;;6.30;4.63;;;;;;;;;;5074446;28;20028;-76
2021/01/02 12:44:04;;;;;;;7.20;4.85;;;;;;;;;;5074544;28;20042;-79
2021/01/02 12:46:41;;;;;;;6.13;4.35;;;;;;;;;;5074219;28;20064;-76
2021/01/02 12:49:07;;;;;;;6.32;3.67;;;;;;;;;;5074461;28;20426;-78
2021/01/02 12:51:33;;;;;;;6.30;3.92;;;;;;;;;;5074297;28;20378;-78
2021/01/02 12:53:59;;;;;;;6.82;4.43;;;;;;;;;;5074060;28;20032;-76
2021/01/02 12:56:25;;;;;;;4.97;3.15;;;;;;;;;;5074196;28;20112;-78
2021/01/02 12:58:52;;;;;;;6.68;3.50;;;;;;;;;;5074122;28;20052;-77
2021/01/02 13:01:18;;;;;;;4.53;3.15;;;;;;;;;;5074129;28;20028;-77
2021/01/02 13:03:44;;;;;;;6.68;3.20;;;;;;;;;;5074240;28;20142;-77
2021/01/02 13:06:14;;;;;;;5.22;3.70;;;;;;;;;;5072819;28;20033;-77
2021/01/02 13:08:41;;;;;;;7.00;4.07;;;;;;;;;;5074118;28;20033;-77
2021/01/02 13:11:08;;;;;;;4.82;3.03;;;;;;;;;;5073976;28;20457;-77
2021/01/02 13:13:34;;;;;;;6.90;3.10;;;;;;;;;;5073977;28;20028;-76
2021/01/02 13:16:01;;;;;;;7.60;5.30;;;;;;;;;;5073839;28;20480;-76
2021/01/02 13:18:27;;;;;;;8.50;3.80;;;;;;;;;;5072487;28;20484;-76
2021/01/02 13:20:53;;;;;;;6.80;4.57;;;;;;;;;;5073914;28;20373;-77
2021/01/02 13:23:20;;;;;;;7.63;4.40;;;;;;;;;;5092349;28;20111;-77
2021/01/02 13:25:46;;;;;;;7.30;4.78;;;;;;;;;;5093235;28;20066;-76
2021/01/02 13:28:13;;;;;;;10.15;6.35;;;;;;;;;;5093777;28;20024;-77
2021/01/02 13:30:39;;;;;;;8.90;4.80;;;;;;;;;;5093973;28;20040;-77
2021/01/02 13:33:05;;;;;;;10.32;5.88;;;;;;;;;;5093311;28;20463;-77
2021/01/02 13:35:31;;;;;;;5.10;4.13;;;;;;;;;;5093633;28;20040;-76
2021/01/02 13:37:58;;;;;;;6.22;3.92;;;;;;;;;;5093741;28;20036;-77
2021/01/02 13:40:24;;;;;;;4.85;3.83;;;;;;;;;;5092953;28;20028;-76
2021/01/02 13:42:50;;;;;;;3.80;2.83;;;;;;;;;;5092621;28;20020;-77
2021/01/02 13:45:16;;;;;;;4.88;3.55;;;;;;;;;;5093350;28;20357;-77
2021/01/02 13:47:42;;;;;;;6.18;3.50;;;;;;;;;;5093288;28;20032;-76
2021/01/02 13:50:09;;;;;;;5.85;3.03;;;;;;;;;;5093264;28;20054;-77
2021/01/02 13:52:35;;;;;;;4.25;3.30;;;;;;;;;;5093586;28;20028;-78
2021/01/02 13:55:01;;;;;;;6.13;4.05;;;;;;;;;;5092969;28;20028;-77
2021/01/02 13:57:27;;;;;;;7.10;3.47;;;;;;;;;;5091745;28;20593;-77
2021/01/02 13:59:54;;;;;;;6.47;2.70;;;;;;;;;;5093348;28;20052;-77
2021/01/02 14:02:20;;;;;;;4.95;3.58;;;;;;;;;;5092319;28;20020;-78
2021/01/02 14:04:49;;;;;;;4.68;3.53;;;;;;;;;;5093101;28;20107;-77
2021/01/02 14:07:17;;;;;;;6.18;3.33;;;;;;;;;;5093127;28;20067;-77
2021/01/02 14:09:43;;;;;;;3.78;2.17;;;;;;;;;;5092993;28;20036;-77
2021/01/02 14:12:09;;;;;;;5.97;2.45;;;;;;;;;;5093078;28;20089;-76
2021/01/02 14:14:36;;;;;;;7.28;4.40;;;;;;;;;;5092588;28;20035;-75
2021/01/02 14:17:02;;;;;;;7.65;4.10;;;;;;;;;;5092707;28;20024;-76
2021/01/02 14:19:29;;;;;;;5.55;3.63;;;;;;;;;;5092265;28;20036;-75
2021/01/02 14:21:57;;;;;;;39.22;28.35;;;;;;;;;;5092410;28;20067;-76
2021/01/02 14:24:23;;;;;;;13.85;10.35;;;;;;;;;;5092547;28;20039;-76
2021/01/02 14:26:50;;;;;;;7.28;3.72;;;;;;;;;;5092745;28;20154;-76
2021/01/02 14:29:17;;;;;;;15.75;11.05;;;;;;;;;;5092638;28;20467;-77
2021/01/02 14:31:43;;;;;;;8.15;4.47;;;;;;;;;;5092361;28;20115;-75
2021/01/02 14:34:11;;;;;;;9.00;6.22;;;;;;;;;;5092577;28;20039;-76
2021/01/02 14:36:37;;;;;;;12.65;8.35;;;;;;;;;;5092309;28;20058;-75
2021/01/02 14:39:04;;;;;;;6.60;4.35;;;;;;;;;;5092454;28;20051;-75
2021/01/02 14:41:30;;;;;;;5.25;3.72;;;;;;;;;;5092166;28;20024;-76